sensor_id;sensor_type;location;lat;lon;timestamp;temperature;humidity
14771;DHT22;7477;45.222;5.688;2022-08-01T00:00:53;26.20;58.30
14771;DHT22;7477;45.222;5.688;2022-08-01T00:04:12;26.30;58.20
14771;DHT22;7477;45.222;5.688;2022-08-01T00:07:32;26.20;58.30
14771;DHT22;7477;45.222;5.688;2022-08-01T00:10:52;26.20;58.50
14771;DHT22;7477;45.222;5.688;2022-08-01T00:14:11;26.20;59.40
14771;DHT22;7477;45.222;5.688;2022-08-01T00:17:31;26.10;58.50
14771;DHT22;7477;45.222;5.688;2022-08-01T00:20:50;26.20;58.70
14771;DHT22;7477;45.222;5.688;2022-08-01T00:24:09;26.20;58.70
14771;DHT22;7477;45.222;5.688;2022-08-01T00:27:28;26.20;59.00
14771;DHT22;7477;45.222;5.688;2022-08-01T00:30:48;26.30;58.60
14771;DHT22;7477;45.222;5.688;2022-08-01T00:34:07;26.20;59.20
14771;DHT22;7477;45.222;5.688;2022-08-01T00:37:26;26.30;59.10
14771;DHT22;7477;45.222;5.688;2022-08-01T00:40:45;26.30;58.60
14771;DHT22;7477;45.222;5.688;2022-08-01T00:44:05;26.10;59.00
14771;DHT22;7477;45.222;5.688;2022-08-01T00:47:24;26.20;59.10
14771;DHT22;7477;45.222;5.688;2022-08-01T00:50:44;26.20;59.80
14771;DHT22;7477;45.222;5.688;2022-08-01T00:54:03;26.40;59.00
14771;DHT22;7477;45.222;5.688;2022-08-01T00:57:23;26.10;59.00
14771;DHT22;7477;45.222;5.688;2022-08-01T01:00:42;26.00;59.10
14771;DHT22;7477;45.222;5.688;2022-08-01T01:04:01;26.10;59.10
14771;DHT22;7477;45.222;5.688;2022-08-01T01:11:28;26.10;60.10
14771;DHT22;7477;45.222;5.688;2022-08-01T01:15:26;26.00;59.90
14771;DHT22;7477;45.222;5.688;2022-08-01T01:18:52;26.00;60.90
14771;DHT22;7477;45.222;5.688;2022-08-01T01:22:25;26.00;60.00
14771;DHT22;7477;45.222;5.688;2022-08-01T01:29:30;25.60;60.20
14771;DHT22;7477;45.222;5.688;2022-08-01T01:32:52;25.60;60.30
14771;DHT22;7477;45.222;5.688;2022-08-01T01:36:13;25.80;61.00
14771;DHT22;7477;45.222;5.688;2022-08-01T01:39:34;25.80;59.90
14771;DHT22;7477;45.222;5.688;2022-08-01T01:42:55;25.50;60.60
14771;DHT22;7477;45.222;5.688;2022-08-01T01:46:17;25.60;60.70
14771;DHT22;7477;45.222;5.688;2022-08-01T01:49:40;25.50;60.40
14771;DHT22;7477;45.222;5.688;2022-08-01T01:53:01;25.30;61.20
14771;DHT22;7477;45.222;5.688;2022-08-01T01:56:23;25.10;61.60
14771;DHT22;7477;45.222;5.688;2022-08-01T01:59:45;25.00;62.30
14771;DHT22;7477;45.222;5.688;2022-08-01T02:03:06;24.80;62.50
14771;DHT22;7477;45.222;5.688;2022-08-01T02:06:27;24.70;62.90
14771;DHT22;7477;45.222;5.688;2022-08-01T02:09:47;24.60;63.90
14771;DHT22;7477;45.222;5.688;2022-08-01T02:13:07;24.50;63.90
14771;DHT22;7477;45.222;5.688;2022-08-01T02:16:34;24.40;64.40
14771;DHT22;7477;45.222;5.688;2022-08-01T02:19:54;24.40;64.40
14771;DHT22;7477;45.222;5.688;2022-08-01T02:23:14;24.40;64.40
14771;DHT22;7477;45.222;5.688;2022-08-01T02:26:37;24.40;64.60
14771;DHT22;7477;45.222;5.688;2022-08-01T02:30:06;24.30;65.10
14771;DHT22;7477;45.222;5.688;2022-08-01T02:33:38;24.30;65.80
14771;DHT22;7477;45.222;5.688;2022-08-01T02:37:00;24.20;66.20
14771;DHT22;7477;45.222;5.688;2022-08-01T02:40:20;24.10;66.70
14771;DHT22;7477;45.222;5.688;2022-08-01T02:43:43;24.00;66.40
14771;DHT22;7477;45.222;5.688;2022-08-01T02:47:05;24.00;67.60
14771;DHT22;7477;45.222;5.688;2022-08-01T02:50:26;23.90;67.60
14771;DHT22;7477;45.222;5.688;2022-08-01T02:53:46;23.90;68.20
14771;DHT22;7477;45.222;5.688;2022-08-01T02:57:07;23.70;69.00
14771;DHT22;7477;45.222;5.688;2022-08-01T03:00:29;23.70;70.30
14771;DHT22;7477;45.222;5.688;2022-08-01T03:03:50;23.60;69.80
14771;DHT22;7477;45.222;5.688;2022-08-01T03:07:10;23.50;70.40
14771;DHT22;7477;45.222;5.688;2022-08-01T03:10:31;23.50;70.30
14771;DHT22;7477;45.222;5.688;2022-08-01T03:13:53;23.40;70.70
14771;DHT22;7477;45.222;5.688;2022-08-01T03:17:13;23.30;71.50
14771;DHT22;7477;45.222;5.688;2022-08-01T03:20:34;23.20;72.00
14771;DHT22;7477;45.222;5.688;2022-08-01T03:23:55;23.20;72.40
14771;DHT22;7477;45.222;5.688;2022-08-01T03:27:18;23.10;72.30
14771;DHT22;7477;45.222;5.688;2022-08-01T03:30:39;23.10;72.30
14771;DHT22;7477;45.222;5.688;2022-08-01T03:33:59;23.00;72.60
14771;DHT22;7477;45.222;5.688;2022-08-01T03:37:50;23.00;73.30
14771;DHT22;7477;45.222;5.688;2022-08-01T03:41:12;22.90;73.40
14771;DHT22;7477;45.222;5.688;2022-08-01T03:44:34;22.90;73.40
14771;DHT22;7477;45.222;5.688;2022-08-01T03:48:00;22.80;74.00
14771;DHT22;7477;45.222;5.688;2022-08-01T03:51:21;22.80;74.30
14771;DHT22;7477;45.222;5.688;2022-08-01T03:54:48;22.70;74.50
14771;DHT22;7477;45.222;5.688;2022-08-01T03:58:09;22.70;74.40
14771;DHT22;7477;45.222;5.688;2022-08-01T04:01:31;22.60;74.80
14771;DHT22;7477;45.222;5.688;2022-08-01T04:04:51;22.60;75.30
14771;DHT22;7477;45.222;5.688;2022-08-01T04:08:10;22.50;76.00
14771;DHT22;7477;45.222;5.688;2022-08-01T04:11:29;22.50;76.30
14771;DHT22;7477;45.222;5.688;2022-08-01T04:14:49;22.40;76.60
14771;DHT22;7477;45.222;5.688;2022-08-01T04:18:08;22.40;76.80
14771;DHT22;7477;45.222;5.688;2022-08-01T04:21:30;22.30;77.00
14771;DHT22;7477;45.222;5.688;2022-08-01T04:24:53;22.30;77.80
14771;DHT22;7477;45.222;5.688;2022-08-01T04:28:15;22.20;77.60
14771;DHT22;7477;45.222;5.688;2022-08-01T04:31:36;22.20;77.70
14771;DHT22;7477;45.222;5.688;2022-08-01T04:34:57;22.10;78.20
14771;DHT22;7477;45.222;5.688;2022-08-01T04:38:22;22.20;78.30
14771;DHT22;7477;45.222;5.688;2022-08-01T04:41:47;22.10;78.30
14771;DHT22;7477;45.222;5.688;2022-08-01T04:45:08;22.10;78.80
14771;DHT22;7477;45.222;5.688;2022-08-01T04:48:28;22.00;79.00
14771;DHT22;7477;45.222;5.688;2022-08-01T04:51:52;22.00;78.80
14771;DHT22;7477;45.222;5.688;2022-08-01T04:55:16;22.00;78.30
14771;DHT22;7477;45.222;5.688;2022-08-01T04:58:36;22.10;78.10
14771;DHT22;7477;45.222;5.688;2022-08-01T05:01:54;22.10;78.30
14771;DHT22;7477;45.222;5.688;2022-08-01T05:05:14;22.00;78.90
14771;DHT22;7477;45.222;5.688;2022-08-01T05:08:33;22.00;79.70
14771;DHT22;7477;45.222;5.688;2022-08-01T05:11:53;21.90;80.00
14771;DHT22;7477;45.222;5.688;2022-08-01T05:15:12;21.90;80.30
14771;DHT22;7477;45.222;5.688;2022-08-01T05:18:31;21.90;79.20
14771;DHT22;7477;45.222;5.688;2022-08-01T05:21:50;21.90;79.70
14771;DHT22;7477;45.222;5.688;2022-08-01T05:25:10;21.90;79.60
14771;DHT22;7477;45.222;5.688;2022-08-01T05:28:29;21.90;80.80
14771;DHT22;7477;45.222;5.688;2022-08-01T05:31:48;21.80;80.90
14771;DHT22;7477;45.222;5.688;2022-08-01T05:35:08;21.80;81.00
14771;DHT22;7477;45.222;5.688;2022-08-01T05:38:27;21.80;81.50
14771;DHT22;7477;45.222;5.688;2022-08-01T05:41:46;21.70;82.40
14771;DHT22;7477;45.222;5.688;2022-08-01T05:45:05;21.70;81.40
14771;DHT22;7477;45.222;5.688;2022-08-01T05:48:25;21.60;82.60
14771;DHT22;7477;45.222;5.688;2022-08-01T05:51:44;21.70;83.10
14771;DHT22;7477;45.222;5.688;2022-08-01T05:55:04;21.70;83.20
14771;DHT22;7477;45.222;5.688;2022-08-01T05:58:23;21.70;83.80
14771;DHT22;7477;45.222;5.688;2022-08-01T06:01:42;21.70;83.70
14771;DHT22;7477;45.222;5.688;2022-08-01T06:05:02;21.70;84.30
14771;DHT22;7477;45.222;5.688;2022-08-01T06:08:21;21.70;84.80
14771;DHT22;7477;45.222;5.688;2022-08-01T06:11:40;21.70;83.50
14771;DHT22;7477;45.222;5.688;2022-08-01T06:15:00;21.70;83.90
14771;DHT22;7477;45.222;5.688;2022-08-01T06:18:20;21.70;84.10
14771;DHT22;7477;45.222;5.688;2022-08-01T06:21:40;21.70;84.40
14771;DHT22;7477;45.222;5.688;2022-08-01T06:24:59;21.70;84.80
14771;DHT22;7477;45.222;5.688;2022-08-01T06:28:18;21.60;85.20
14771;DHT22;7477;45.222;5.688;2022-08-01T06:31:38;21.70;85.40
14771;DHT22;7477;45.222;5.688;2022-08-01T06:34:57;21.60;85.70
14771;DHT22;7477;45.222;5.688;2022-08-01T06:38:16;21.60;86.10
14771;DHT22;7477;45.222;5.688;2022-08-01T06:41:35;21.60;86.30
14771;DHT22;7477;45.222;5.688;2022-08-01T06:44:55;21.70;85.90
14771;DHT22;7477;45.222;5.688;2022-08-01T06:48:14;21.80;85.70
14771;DHT22;7477;45.222;5.688;2022-08-01T06:51:34;21.80;86.10
14771;DHT22;7477;45.222;5.688;2022-08-01T06:54:53;21.90;85.90
14771;DHT22;7477;45.222;5.688;2022-08-01T06:58:12;21.90;86.00
14771;DHT22;7477;45.222;5.688;2022-08-01T07:01:31;21.90;86.10
14771;DHT22;7477;45.222;5.688;2022-08-01T07:04:50;21.80;85.30
14771;DHT22;7477;45.222;5.688;2022-08-01T07:08:09;21.90;85.40
14771;DHT22;7477;45.222;5.688;2022-08-01T07:11:29;21.80;85.40
14771;DHT22;7477;45.222;5.688;2022-08-01T07:14:49;21.60;84.50
14771;DHT22;7477;45.222;5.688;2022-08-01T07:18:08;21.80;84.00
14771;DHT22;7477;45.222;5.688;2022-08-01T07:21:27;22.10;83.80
14771;DHT22;7477;45.222;5.688;2022-08-01T07:24:46;22.20;83.90
14771;DHT22;7477;45.222;5.688;2022-08-01T07:28:06;22.60;82.00
14771;DHT22;7477;45.222;5.688;2022-08-01T07:31:25;22.50;82.50
14771;DHT22;7477;45.222;5.688;2022-08-01T07:34:44;22.30;82.80
14771;DHT22;7477;45.222;5.688;2022-08-01T07:38:05;22.30;82.20
14771;DHT22;7477;45.222;5.688;2022-08-01T07:41:24;22.30;81.90
14771;DHT22;7477;45.222;5.688;2022-08-01T07:44:43;22.40;82.10
14771;DHT22;7477;45.222;5.688;2022-08-01T07:48:06;22.50;81.90
14771;DHT22;7477;45.222;5.688;2022-08-01T07:51:25;22.60;81.20
14771;DHT22;7477;45.222;5.688;2022-08-01T07:54:45;22.70;81.20
14771;DHT22;7477;45.222;5.688;2022-08-01T07:58:05;22.80;80.20
14771;DHT22;7477;45.222;5.688;2022-08-01T08:01:24;22.90;80.00
14771;DHT22;7477;45.222;5.688;2022-08-01T08:04:44;22.90;79.70
14771;DHT22;7477;45.222;5.688;2022-08-01T08:08:08;23.10;78.70
14771;DHT22;7477;45.222;5.688;2022-08-01T08:11:28;23.10;79.00
14771;DHT22;7477;45.222;5.688;2022-08-01T08:14:47;23.10;79.00
14771;DHT22;7477;45.222;5.688;2022-08-01T08:18:07;23.10;78.70
14771;DHT22;7477;45.222;5.688;2022-08-01T08:21:26;23.20;78.30
14771;DHT22;7477;45.222;5.688;2022-08-01T08:24:46;23.20;78.20
14771;DHT22;7477;45.222;5.688;2022-08-01T08:28:05;23.30;77.80
14771;DHT22;7477;45.222;5.688;2022-08-01T08:31:25;23.30;77.90
14771;DHT22;7477;45.222;5.688;2022-08-01T08:34:44;23.30;78.10
14771;DHT22;7477;45.222;5.688;2022-08-01T08:38:03;23.40;78.10
14771;DHT22;7477;45.222;5.688;2022-08-01T08:41:22;23.40;77.20
14771;DHT22;7477;45.222;5.688;2022-08-01T08:44:42;23.50;76.60
14771;DHT22;7477;45.222;5.688;2022-08-01T08:48:02;23.50;76.30
14771;DHT22;7477;45.222;5.688;2022-08-01T08:51:25;23.50;76.60
14771;DHT22;7477;45.222;5.688;2022-08-01T08:54:46;23.60;76.00
14771;DHT22;7477;45.222;5.688;2022-08-01T08:58:05;23.70;75.60
14771;DHT22;7477;45.222;5.688;2022-08-01T09:01:25;23.80;75.20
14771;DHT22;7477;45.222;5.688;2022-08-01T09:04:47;23.80;75.20
14771;DHT22;7477;45.222;5.688;2022-08-01T09:08:07;23.80;75.00
14771;DHT22;7477;45.222;5.688;2022-08-01T09:11:27;23.90;74.50
14771;DHT22;7477;45.222;5.688;2022-08-01T09:14:47;23.80;74.40
14771;DHT22;7477;45.222;5.688;2022-08-01T09:18:23;23.80;74.40
14771;DHT22;7477;45.222;5.688;2022-08-01T09:21:58;23.80;74.40
14771;DHT22;7477;45.222;5.688;2022-08-01T09:25:17;23.90;74.30
14771;DHT22;7477;45.222;5.688;2022-08-01T09:28:37;24.00;74.40
14771;DHT22;7477;45.222;5.688;2022-08-01T09:31:56;24.00;74.60
14771;DHT22;7477;45.222;5.688;2022-08-01T09:35:29;24.10;74.30
14771;DHT22;7477;45.222;5.688;2022-08-01T09:38:53;24.20;74.00
14771;DHT22;7477;45.222;5.688;2022-08-01T09:42:23;24.10;74.50
14771;DHT22;7477;45.222;5.688;2022-08-01T09:45:43;24.20;74.70
14771;DHT22;7477;45.222;5.688;2022-08-01T09:49:04;24.30;74.90
14771;DHT22;7477;45.222;5.688;2022-08-01T09:52:25;24.30;73.80
14771;DHT22;7477;45.222;5.688;2022-08-01T09:55:45;24.30;74.00
14771;DHT22;7477;45.222;5.688;2022-08-01T09:59:05;24.40;74.20
14771;DHT22;7477;45.222;5.688;2022-08-01T10:02:34;24.30;74.50
14771;DHT22;7477;45.222;5.688;2022-08-01T10:05:53;24.40;75.10
14771;DHT22;7477;45.222;5.688;2022-08-01T10:09:14;24.40;74.50
14771;DHT22;7477;45.222;5.688;2022-08-01T10:12:33;24.90;72.90
14771;DHT22;7477;45.222;5.688;2022-08-01T10:15:53;25.50;71.20
14771;DHT22;7477;45.222;5.688;2022-08-01T10:19:12;25.90;70.00
14771;DHT22;7477;45.222;5.688;2022-08-01T10:22:31;25.30;71.50
14771;DHT22;7477;45.222;5.688;2022-08-01T10:25:54;25.50;70.60
14771;DHT22;7477;45.222;5.688;2022-08-01T10:29:15;26.30;67.50
14771;DHT22;7477;45.222;5.688;2022-08-01T10:32:37;26.40;66.60
14771;DHT22;7477;45.222;5.688;2022-08-01T10:35:57;26.50;65.40
14771;DHT22;7477;45.222;5.688;2022-08-01T10:39:18;26.80;64.80
14771;DHT22;7477;45.222;5.688;2022-08-01T10:42:39;26.90;64.40
14771;DHT22;7477;45.222;5.688;2022-08-01T10:46:00;27.00;62.80
14771;DHT22;7477;45.222;5.688;2022-08-01T10:49:24;27.20;63.30
14771;DHT22;7477;45.222;5.688;2022-08-01T10:56:46;27.40;61.20
14771;DHT22;7477;45.222;5.688;2022-08-01T11:00:06;27.70;61.00
14771;DHT22;7477;45.222;5.688;2022-08-01T11:03:34;27.60;60.90
14771;DHT22;7477;45.222;5.688;2022-08-01T11:07:07;27.70;61.20
14771;DHT22;7477;45.222;5.688;2022-08-01T11:10:37;27.80;59.80
14771;DHT22;7477;45.222;5.688;2022-08-01T11:14:01;27.50;60.10
14771;DHT22;7477;45.222;5.688;2022-08-01T11:17:31;27.70;60.00
14771;DHT22;7477;45.222;5.688;2022-08-01T11:21:00;27.70;60.00
14771;DHT22;7477;45.222;5.688;2022-08-01T11:31:35;28.60;57.10
14771;DHT22;7477;45.222;5.688;2022-08-01T11:34:55;28.90;56.00
14771;DHT22;7477;45.222;5.688;2022-08-01T11:38:26;28.80;56.30
14771;DHT22;7477;45.222;5.688;2022-08-01T11:41:49;29.00;55.30
14771;DHT22;7477;45.222;5.688;2022-08-01T11:45:09;29.10;55.50
14771;DHT22;7477;45.222;5.688;2022-08-01T11:48:31;29.20;55.00
14771;DHT22;7477;45.222;5.688;2022-08-01T11:51:58;29.30;54.80
14771;DHT22;7477;45.222;5.688;2022-08-01T11:55:18;29.20;55.10
14771;DHT22;7477;45.222;5.688;2022-08-01T11:58:37;29.40;54.10
14771;DHT22;7477;45.222;5.688;2022-08-01T12:01:56;29.40;53.90
14771;DHT22;7477;45.222;5.688;2022-08-01T12:05:16;29.40;54.00
14771;DHT22;7477;45.222;5.688;2022-08-01T12:08:39;29.50;53.40
14771;DHT22;7477;45.222;5.688;2022-08-01T12:11:58;29.70;52.50
14771;DHT22;7477;45.222;5.688;2022-08-01T12:15:20;29.70;52.00
14771;DHT22;7477;45.222;5.688;2022-08-01T12:18:41;29.90;52.80
14771;DHT22;7477;45.222;5.688;2022-08-01T12:22:09;30.00;53.00
14771;DHT22;7477;45.222;5.688;2022-08-01T12:25:29;29.90;53.00
14771;DHT22;7477;45.222;5.688;2022-08-01T12:28:49;30.00;51.50
14771;DHT22;7477;45.222;5.688;2022-08-01T12:32:26;30.00;51.70
14771;DHT22;7477;45.222;5.688;2022-08-01T12:35:46;29.90;51.40
14771;DHT22;7477;45.222;5.688;2022-08-01T12:39:06;30.10;50.20
14771;DHT22;7477;45.222;5.688;2022-08-01T12:42:27;30.10;50.10
14771;DHT22;7477;45.222;5.688;2022-08-01T12:45:49;29.80;52.40
14771;DHT22;7477;45.222;5.688;2022-08-01T12:49:09;30.30;50.60
14771;DHT22;7477;45.222;5.688;2022-08-01T12:52:30;30.30;50.30
14771;DHT22;7477;45.222;5.688;2022-08-01T12:55:54;30.40;50.10
14771;DHT22;7477;45.222;5.688;2022-08-01T12:59:24;30.50;50.10
14771;DHT22;7477;45.222;5.688;2022-08-01T13:02:46;30.30;50.30
14771;DHT22;7477;45.222;5.688;2022-08-01T13:06:13;30.50;50.10
14771;DHT22;7477;45.222;5.688;2022-08-01T13:09:33;30.60;49.50
14771;DHT22;7477;45.222;5.688;2022-08-01T13:12:58;30.40;49.90
14771;DHT22;7477;45.222;5.688;2022-08-01T13:16:19;30.60;49.40
14771;DHT22;7477;45.222;5.688;2022-08-01T13:19:45;30.80;47.80
14771;DHT22;7477;45.222;5.688;2022-08-01T13:23:17;30.60;48.80
14771;DHT22;7477;45.222;5.688;2022-08-01T13:26:48;30.70;47.50
14771;DHT22;7477;45.222;5.688;2022-08-01T13:30:19;31.10;45.70
14771;DHT22;7477;45.222;5.688;2022-08-01T13:33:46;31.00;46.50
14771;DHT22;7477;45.222;5.688;2022-08-01T13:37:06;31.10;46.30
14771;DHT22;7477;45.222;5.688;2022-08-01T13:40:26;31.10;46.60
14771;DHT22;7477;45.222;5.688;2022-08-01T13:43:46;31.30;45.30
14771;DHT22;7477;45.222;5.688;2022-08-01T13:47:06;31.50;44.00
14771;DHT22;7477;45.222;5.688;2022-08-01T13:50:26;31.30;44.60
14771;DHT22;7477;45.222;5.688;2022-08-01T13:53:45;31.50;43.30
14771;DHT22;7477;45.222;5.688;2022-08-01T13:57:04;31.50;44.30
14771;DHT22;7477;45.222;5.688;2022-08-01T14:00:24;31.50;44.40
14771;DHT22;7477;45.222;5.688;2022-08-01T14:03:43;31.50;44.70
14771;DHT22;7477;45.222;5.688;2022-08-01T14:07:02;31.70;44.00
14771;DHT22;7477;45.222;5.688;2022-08-01T14:10:23;32.10;43.60
14771;DHT22;7477;45.222;5.688;2022-08-01T14:13:42;32.20;43.30
14771;DHT22;7477;45.222;5.688;2022-08-01T14:17:02;32.40;42.70
14771;DHT22;7477;45.222;5.688;2022-08-01T14:20:22;32.40;42.10
14771;DHT22;7477;45.222;5.688;2022-08-01T14:23:41;32.50;41.90
14771;DHT22;7477;45.222;5.688;2022-08-01T14:27:03;32.40;41.80
14771;DHT22;7477;45.222;5.688;2022-08-01T14:30:22;32.50;42.40
14771;DHT22;7477;45.222;5.688;2022-08-01T14:33:42;32.90;42.10
14771;DHT22;7477;45.222;5.688;2022-08-01T14:37:01;32.80;41.90
14771;DHT22;7477;45.222;5.688;2022-08-01T14:40:21;32.80;42.60
14771;DHT22;7477;45.222;5.688;2022-08-01T14:43:40;33.10;41.80
14771;DHT22;7477;45.222;5.688;2022-08-01T14:46:59;33.00;41.00
14771;DHT22;7477;45.222;5.688;2022-08-01T14:50:19;33.00;41.60
14771;DHT22;7477;45.222;5.688;2022-08-01T14:53:38;32.80;42.60
14771;DHT22;7477;45.222;5.688;2022-08-01T14:56:58;33.20;41.60
14771;DHT22;7477;45.222;5.688;2022-08-01T15:00:17;33.40;41.00
14771;DHT22;7477;45.222;5.688;2022-08-01T15:03:37;33.40;41.00
14771;DHT22;7477;45.222;5.688;2022-08-01T15:06:56;32.60;43.40
14771;DHT22;7477;45.222;5.688;2022-08-01T15:10:16;30.40;49.50
14771;DHT22;7477;45.222;5.688;2022-08-01T15:13:35;30.10;50.70
14771;DHT22;7477;45.222;5.688;2022-08-01T15:16:55;30.30;47.80
14771;DHT22;7477;45.222;5.688;2022-08-01T15:20:14;30.20;48.40
14771;DHT22;7477;45.222;5.688;2022-08-01T15:23:33;31.80;43.50
14771;DHT22;7477;45.222;5.688;2022-08-01T15:26:52;33.40;39.70
14771;DHT22;7477;45.222;5.688;2022-08-01T15:30:12;33.60;39.00
14771;DHT22;7477;45.222;5.688;2022-08-01T15:33:31;33.70;38.30
14771;DHT22;7477;45.222;5.688;2022-08-01T15:36:50;33.50;39.40
14771;DHT22;7477;45.222;5.688;2022-08-01T15:40:11;33.70;38.80
14771;DHT22;7477;45.222;5.688;2022-08-01T15:43:30;34.00;38.30
14771;DHT22;7477;45.222;5.688;2022-08-01T15:46:50;34.20;38.00
14771;DHT22;7477;45.222;5.688;2022-08-01T15:50:09;34.40;37.90
14771;DHT22;7477;45.222;5.688;2022-08-01T15:53:29;34.40;37.80
14771;DHT22;7477;45.222;5.688;2022-08-01T15:56:48;34.40;37.80
14771;DHT22;7477;45.222;5.688;2022-08-01T16:00:08;34.70;36.20
14771;DHT22;7477;45.222;5.688;2022-08-01T16:03:28;34.60;37.00
14771;DHT22;7477;45.222;5.688;2022-08-01T16:06:47;34.50;36.80
14771;DHT22;7477;45.222;5.688;2022-08-01T16:10:06;34.70;36.00
14771;DHT22;7477;45.222;5.688;2022-08-01T16:13:25;34.70;36.00
14771;DHT22;7477;45.222;5.688;2022-08-01T16:16:44;34.70;35.90
14771;DHT22;7477;45.222;5.688;2022-08-01T16:20:04;34.60;35.90
14771;DHT22;7477;45.222;5.688;2022-08-01T16:23:24;34.90;36.50
14771;DHT22;7477;45.222;5.688;2022-08-01T16:26:43;34.80;36.30
14771;DHT22;7477;45.222;5.688;2022-08-01T16:30:04;34.80;35.10
14771;DHT22;7477;45.222;5.688;2022-08-01T16:33:23;34.60;35.20
14771;DHT22;7477;45.222;5.688;2022-08-01T16:36:42;34.40;35.60
14771;DHT22;7477;45.222;5.688;2022-08-01T16:40:02;33.90;35.80
14771;DHT22;7477;45.222;5.688;2022-08-01T16:43:22;33.40;36.50
14771;DHT22;7477;45.222;5.688;2022-08-01T16:46:41;33.10;36.50
14771;DHT22;7477;45.222;5.688;2022-08-01T16:50:00;32.90;36.40
14771;DHT22;7477;45.222;5.688;2022-08-01T16:53:21;32.80;36.60
14771;DHT22;7477;45.222;5.688;2022-08-01T16:56:40;32.70;36.60
14771;DHT22;7477;45.222;5.688;2022-08-01T17:00:00;32.70;36.80
14771;DHT22;7477;45.222;5.688;2022-08-01T17:03:19;32.60;37.20
14771;DHT22;7477;45.222;5.688;2022-08-01T17:06:41;32.50;37.30
14771;DHT22;7477;45.222;5.688;2022-08-01T17:10:00;32.40;37.80
14771;DHT22;7477;45.222;5.688;2022-08-01T17:13:20;32.40;38.00
14771;DHT22;7477;45.222;5.688;2022-08-01T17:16:41;32.20;38.30
14771;DHT22;7477;45.222;5.688;2022-08-01T17:20:01;32.10;38.40
14771;DHT22;7477;45.222;5.688;2022-08-01T17:23:20;32.10;38.80
14771;DHT22;7477;45.222;5.688;2022-08-01T17:26:39;32.10;38.90
14771;DHT22;7477;45.222;5.688;2022-08-01T17:29:58;32.00;39.40
14771;DHT22;7477;45.222;5.688;2022-08-01T17:33:18;31.90;40.20
14771;DHT22;7477;45.222;5.688;2022-08-01T17:36:37;31.90;40.10
14771;DHT22;7477;45.222;5.688;2022-08-01T17:39:56;31.80;40.50
14771;DHT22;7477;45.222;5.688;2022-08-01T17:43:16;31.70;40.90
14771;DHT22;7477;45.222;5.688;2022-08-01T17:46:35;31.60;40.80
14771;DHT22;7477;45.222;5.688;2022-08-01T17:49:54;31.60;40.90
14771;DHT22;7477;45.222;5.688;2022-08-01T17:53:14;31.50;41.00
14771;DHT22;7477;45.222;5.688;2022-08-01T17:56:34;31.40;40.90
14771;DHT22;7477;45.222;5.688;2022-08-01T17:59:54;31.40;41.10
14771;DHT22;7477;45.222;5.688;2022-08-01T18:03:14;31.40;41.30
14771;DHT22;7477;45.222;5.688;2022-08-01T18:06:36;31.30;41.70
14771;DHT22;7477;45.222;5.688;2022-08-01T18:09:56;31.20;41.90
14771;DHT22;7477;45.222;5.688;2022-08-01T18:13:16;31.20;41.60
14771;DHT22;7477;45.222;5.688;2022-08-01T18:16:36;31.10;41.90
14771;DHT22;7477;45.222;5.688;2022-08-01T18:19:55;31.10;41.80
14771;DHT22;7477;45.222;5.688;2022-08-01T18:23:14;31.00;42.30
14771;DHT22;7477;45.222;5.688;2022-08-01T18:26:35;30.90;42.70
14771;DHT22;7477;45.222;5.688;2022-08-01T18:29:54;30.90;42.80
14771;DHT22;7477;45.222;5.688;2022-08-01T18:33:14;30.80;43.20
14771;DHT22;7477;45.222;5.688;2022-08-01T18:36:33;30.80;43.40
14771;DHT22;7477;45.222;5.688;2022-08-01T18:39:52;30.70;43.70
14771;DHT22;7477;45.222;5.688;2022-08-01T18:43:12;30.60;44.20
14771;DHT22;7477;45.222;5.688;2022-08-01T18:46:31;30.60;44.50
14771;DHT22;7477;45.222;5.688;2022-08-01T18:49:51;30.50;44.70
14771;DHT22;7477;45.222;5.688;2022-08-01T18:53:10;30.40;45.00
14771;DHT22;7477;45.222;5.688;2022-08-01T18:56:29;30.40;45.20
14771;DHT22;7477;45.222;5.688;2022-08-01T18:59:49;30.30;45.30
14771;DHT22;7477;45.222;5.688;2022-08-01T19:03:08;30.30;45.40
14771;DHT22;7477;45.222;5.688;2022-08-01T19:06:28;30.20;45.60
14771;DHT22;7477;45.222;5.688;2022-08-01T19:09:48;30.20;45.80
14771;DHT22;7477;45.222;5.688;2022-08-01T19:13:08;30.10;46.00
14771;DHT22;7477;45.222;5.688;2022-08-01T19:16:27;30.00;46.10
14771;DHT22;7477;45.222;5.688;2022-08-01T19:19:47;30.00;46.30
14771;DHT22;7477;45.222;5.688;2022-08-01T19:23:08;30.00;46.50
14771;DHT22;7477;45.222;5.688;2022-08-01T19:26:59;29.90;46.40
14771;DHT22;7477;45.222;5.688;2022-08-01T19:30:20;29.90;46.50
14771;DHT22;7477;45.222;5.688;2022-08-01T19:33:40;29.90;46.60
14771;DHT22;7477;45.222;5.688;2022-08-01T19:36:59;29.80;46.70
14771;DHT22;7477;45.222;5.688;2022-08-01T19:40:19;29.80;46.90
14771;DHT22;7477;45.222;5.688;2022-08-01T19:43:38;29.70;47.10
14771;DHT22;7477;45.222;5.688;2022-08-01T19:46:58;29.70;47.10
14771;DHT22;7477;45.222;5.688;2022-08-01T19:50:18;29.60;47.20
14771;DHT22;7477;45.222;5.688;2022-08-01T19:53:41;29.60;47.30
14771;DHT22;7477;45.222;5.688;2022-08-01T19:57:03;29.60;47.50
14771;DHT22;7477;45.222;5.688;2022-08-01T20:00:24;29.50;47.60
14771;DHT22;7477;45.222;5.688;2022-08-01T20:03:47;29.50;47.60
14771;DHT22;7477;45.222;5.688;2022-08-01T20:07:07;29.50;47.70
14771;DHT22;7477;45.222;5.688;2022-08-01T20:10:26;29.50;48.40
14771;DHT22;7477;45.222;5.688;2022-08-01T20:13:45;29.50;47.90
14771;DHT22;7477;45.222;5.688;2022-08-01T20:17:06;29.30;48.20
14771;DHT22;7477;45.222;5.688;2022-08-01T20:20:27;29.40;48.30
14771;DHT22;7477;45.222;5.688;2022-08-01T20:23:48;29.50;48.40
14771;DHT22;7477;45.222;5.688;2022-08-01T20:27:09;29.50;48.20
14771;DHT22;7477;45.222;5.688;2022-08-01T20:30:28;29.30;48.20
14771;DHT22;7477;45.222;5.688;2022-08-01T20:33:48;29.40;48.30
14771;DHT22;7477;45.222;5.688;2022-08-01T20:37:09;29.50;48.30
14771;DHT22;7477;45.222;5.688;2022-08-01T20:40:29;29.40;49.10
14771;DHT22;7477;45.222;5.688;2022-08-01T20:43:53;29.30;48.60
14771;DHT22;7477;45.222;5.688;2022-08-01T20:47:14;29.20;48.60
14771;DHT22;7477;45.222;5.688;2022-08-01T20:50:33;29.30;49.20
14771;DHT22;7477;45.222;5.688;2022-08-01T20:54:11;29.30;49.50
14771;DHT22;7477;45.222;5.688;2022-08-01T20:57:31;29.20;49.10
14771;DHT22;7477;45.222;5.688;2022-08-01T21:00:53;29.20;49.50
14771;DHT22;7477;45.222;5.688;2022-08-01T21:08:22;29.00;49.40
14771;DHT22;7477;45.222;5.688;2022-08-01T21:11:48;29.00;50.20
14771;DHT22;7477;45.222;5.688;2022-08-01T21:15:14;29.00;49.90
14771;DHT22;7477;45.222;5.688;2022-08-01T21:18:36;29.10;49.80
14771;DHT22;7477;45.222;5.688;2022-08-01T21:22:03;29.10;49.90
14771;DHT22;7477;45.222;5.688;2022-08-01T21:25:31;29.00;49.70
14771;DHT22;7477;45.222;5.688;2022-08-01T21:28:52;29.00;49.60
14771;DHT22;7477;45.222;5.688;2022-08-01T21:32:13;28.90;49.80
14771;DHT22;7477;45.222;5.688;2022-08-01T21:35:34;28.70;49.80
14771;DHT22;7477;45.222;5.688;2022-08-01T21:38:56;28.60;50.00
14771;DHT22;7477;45.222;5.688;2022-08-01T21:42:16;28.40;50.40
14771;DHT22;7477;45.222;5.688;2022-08-01T21:45:37;28.30;50.70
14771;DHT22;7477;45.222;5.688;2022-08-01T21:48:56;28.20;51.60
14771;DHT22;7477;45.222;5.688;2022-08-01T21:52:16;28.30;50.70